createdAt,value
2022-11-15T00:02:34.192Z,97.87
2022-11-15T00:07:55.245Z,97.94
2022-11-15T00:13:06.412Z,97.85
2022-11-15T00:18:16.966Z,98.23
2022-11-15T00:23:24.630Z,98.34
2022-11-15T00:28:32.544Z,98.76
2022-11-15T00:33:39.739Z,99.12
2022-11-15T00:38:45.348Z,99.33
2022-11-15T00:43:52.415Z,98.93
2022-11-15T00:48:59.721Z,99.21
2022-11-15T00:54:07.238Z,99.15
2022-11-15T00:59:14.634Z,98.88
2022-11-15T01:04:21.948Z,98.79
2022-11-15T01:09:29.245Z,98.72
2022-11-15T01:14:36.176Z,98.40
2022-11-15T01:19:43.369Z,98.45
2022-11-15T01:24:48.924Z,98.35
2022-11-15T01:29:55.899Z,98.63
2022-11-15T01:35:01.510Z,98.62
2022-11-15T01:40:10.334Z,98.41
2022-11-15T01:45:19.067Z,97.36
2022-11-15T01:50:29.995Z,98.53
2022-11-15T01:55:37.305Z,99.14
2022-11-15T02:00:44.681Z,98.79
2022-11-15T02:05:52.595Z,98.56
2022-11-15T02:10:59.613Z,98.30
2022-11-15T02:16:15.812Z,98.89
2022-11-15T02:21:30.612Z,99.06
2022-11-15T02:27:02.987Z,99.73
2022-11-15T02:32:17.243Z,99.51
2022-11-15T02:37:33.320Z,99.55
2022-11-15T02:43:08.274Z,99.12
2022-11-15T02:48:17.021Z,99.11
2022-11-15T02:53:27.876Z,99.07
2022-11-15T02:58:50.874Z,98.65
2022-11-15T03:04:09.244Z,98.26
2022-11-15T03:09:26.566Z,97.77
2022-11-15T03:14:37.886Z,98.13
2022-11-15T03:19:49.367Z,98.59
2022-11-15T03:25:00.058Z,98.30
2022-11-15T03:30:10.531Z,97.90
2022-11-15T03:35:21.114Z,97.77
2022-11-15T03:40:36.924Z,97.92
2022-11-15T03:45:49.002Z,98.23
2022-11-15T03:50:57.400Z,98.40
2022-11-15T03:56:04.472Z,98.07
2022-11-15T04:01:11.545Z,97.95
2022-11-15T04:06:17.122Z,97.87
2022-11-15T04:11:24.097Z,97.80
2022-11-15T04:16:31.157Z,97.92
2022-11-15T04:21:54.118Z,97.93
2022-11-15T04:27:01.528Z,97.82
2022-11-15T04:32:09.650Z,97.79
2022-11-15T04:37:17.280Z,97.65
2022-11-15T04:42:24.269Z,97.10
2022-11-15T04:47:31.790Z,97.07
2022-11-15T04:52:38.861Z,97.44
2022-11-15T04:57:45.996Z,97.95
2022-11-15T05:03:10.601Z,97.94
2022-11-15T05:08:17.497Z,97.83
2022-11-15T05:13:24.607Z,97.87
2022-11-15T05:18:30.065Z,97.96
2022-11-15T05:23:37.360Z,97.68
2022-11-15T05:28:44.667Z,97.84
2022-11-15T05:33:53.443Z,98.01
2022-11-15T05:39:00.851Z,98.15
2022-11-15T05:44:11.611Z,97.90
2022-11-15T05:49:22.334Z,98.09
2022-11-15T05:54:29.889Z,98.17
2022-11-15T05:59:38.244Z,98.14
2022-11-15T06:04:45.110Z,98.15
2022-11-15T06:09:52.142Z,98.03
2022-11-15T06:14:59.181Z,97.99
2022-11-15T06:20:07.272Z,97.97
2022-11-15T06:25:14.170Z,97.77
2022-11-15T06:30:21.469Z,97.26
2022-11-15T06:35:28.677Z,97.27
2022-11-15T06:40:34.872Z,97.46
2022-11-15T06:45:41.953Z,97.22
2022-11-15T06:50:54.696Z,97.59
2022-11-15T06:56:04.149Z,97.72
2022-11-15T07:01:13.468Z,97.46
2022-11-15T07:06:20.596Z,97.45
2022-11-15T07:11:27.498Z,97.71
2022-11-15T07:16:34.811Z,97.78
2022-11-15T07:21:42.011Z,97.45
2022-11-15T07:26:47.488Z,97.73
2022-11-15T07:31:54.792Z,97.47
2022-11-15T07:37:00.259Z,97.27
2022-11-15T07:42:25.811Z,97.34
2022-11-15T07:47:33.628Z,97.56
2022-11-15T07:52:41.671Z,97.64
2022-11-15T07:57:48.729Z,97.86
2022-11-15T08:03:03.232Z,97.32
2022-11-15T08:08:11.523Z,96.59
2022-11-15T08:13:21.487Z,97.31
2022-11-15T08:18:28.597Z,97.78
2022-11-15T08:23:35.877Z,98.00
2022-11-15T08:28:43.206Z,98.40
2022-11-15T08:33:48.675Z,98.20
2022-11-15T08:38:56.391Z,97.96
2022-11-15T08:44:03.806Z,98.04
2022-11-15T08:49:11.652Z,97.78
2022-11-15T08:54:18.624Z,97.44
2022-11-15T08:59:24.710Z,97.41
2022-11-15T09:04:32.226Z,97.14
2022-11-15T09:09:39.719Z,97.34
2022-11-15T09:14:46.649Z,96.60
2022-11-15T09:19:53.572Z,96.48
2022-11-15T09:25:00.595Z,96.51
2022-11-15T09:30:07.287Z,95.66
2022-11-15T09:35:15.462Z,95.72
2022-11-15T09:40:24.425Z,96.00
2022-11-15T09:45:37.359Z,96.57
2022-11-15T09:50:51.908Z,97.05
2022-11-15T09:56:03.195Z,97.03
2022-11-15T10:01:17.138Z,97.38
2022-11-15T10:06:27.703Z,97.43
2022-11-15T10:11:39.165Z,97.39
2022-11-15T10:17:12.032Z,97.93
2022-11-15T10:22:30.626Z,98.35
2022-11-15T10:27:37.813Z,98.66
2022-11-15T10:32:47.250Z,98.61
2022-11-15T10:37:54.200Z,97.82
2022-11-15T10:43:16.147Z,97.20
2022-11-15T10:48:28.085Z,96.17
2022-11-15T10:53:44.211Z,95.93
2022-11-15T10:58:57.944Z,95.42
2022-11-15T11:04:07.594Z,94.86
2022-11-15T11:09:30.253Z,94.87
2022-11-15T11:14:39.547Z,95.26
2022-11-15T11:25:30.719Z,94.49
2022-11-15T11:30:50.397Z,94.10
2022-11-15T11:36:08.398Z,93.48
2022-11-15T11:41:22.590Z,93.20
2022-11-15T11:46:50.774Z,93.39
2022-11-15T11:52:04.690Z,93.29
2022-11-15T11:57:19.756Z,93.24
2022-11-15T12:02:33.956Z,92.84
2022-11-15T12:07:43.130Z,92.47
2022-11-15T12:12:56.618Z,92.41
2022-11-15T12:18:04.570Z,92.43
2022-11-15T12:23:17.839Z,91.86
2022-11-15T12:28:38.076Z,91.51
2022-11-15T12:33:48.475Z,91.42
2022-11-15T12:39:00.251Z,91.09
2022-11-15T12:44:13.269Z,90.94
2022-11-15T12:49:47.537Z,90.86
2022-11-15T12:54:58.086Z,90.89
2022-11-15T13:00:28.559Z,90.75
2022-11-15T13:06:13.330Z,90.50
2022-11-15T13:11:50.468Z,90.59
2022-11-15T13:17:02.059Z,90.58
2022-11-15T13:22:31.097Z,90.57
2022-11-15T13:27:38.459Z,90.48
2022-11-15T13:32:45.786Z,90.64
2022-11-15T13:37:54.662Z,90.41
2022-11-15T13:43:02.118Z,90.54
2022-11-15T13:48:12.227Z,90.29
2022-11-15T13:53:19.696Z,90.02
2022-11-15T13:58:26.991Z,89.90
2022-11-15T14:03:36.356Z,89.70
2022-11-15T14:08:45.158Z,89.58
2022-11-15T14:14:14.332Z,89.64
2022-11-15T14:19:42.287Z,89.41
2022-11-15T14:25:06.867Z,89.60
2022-11-15T14:30:19.063Z,89.79
2022-11-15T14:35:27.244Z,89.61
2022-11-15T14:40:34.514Z,89.66
2022-11-15T14:45:42.621Z,89.66
2022-11-15T14:50:50.384Z,89.73
2022-11-15T14:55:57.448Z,89.51
2022-11-15T15:01:04.349Z,89.57
2022-11-15T15:06:17.879Z,89.53
2022-11-15T15:11:28.388Z,90.07
2022-11-15T15:16:35.788Z,89.79
2022-11-15T15:21:43.502Z,89.69
2022-11-15T15:26:51.078Z,89.49
2022-11-15T15:31:58.501Z,89.28
2022-11-15T15:37:23.856Z,89.24
2022-11-15T15:42:31.030Z,89.19
2022-11-15T15:47:36.495Z,89.27
2022-11-15T15:52:43.790Z,89.38
2022-11-15T15:57:51.668Z,89.33
2022-11-15T16:02:59.671Z,89.36
2022-11-15T16:08:07.542Z,89.50
2022-11-15T16:13:14.870Z,89.84
2022-11-15T16:18:22.462Z,89.62
2022-11-15T16:23:29.752Z,89.67
2022-11-15T16:28:37.863Z,89.91
2022-11-15T16:33:46.298Z,90.45
2022-11-15T16:38:54.545Z,90.26
2022-11-15T16:44:02.160Z,90.18
2022-11-15T16:49:14.932Z,90.60
2022-11-15T16:54:22.062Z,90.55
2022-11-15T16:59:33.189Z,90.77
2022-11-15T17:04:43.422Z,90.81
2022-11-15T17:09:50.960Z,90.67
2022-11-15T17:14:58.254Z,90.89
2022-11-15T17:20:10.351Z,91.13
2022-11-15T17:25:18.196Z,91.13
2022-11-15T17:30:25.613Z,91.21
2022-11-15T17:35:33.364Z,91.35
2022-11-15T17:40:40.914Z,91.52
2022-11-15T17:45:48.324Z,91.86
2022-11-15T17:51:03.017Z,91.63
2022-11-15T17:56:12.554Z,91.86
2022-11-15T18:01:22.722Z,91.67
2022-11-15T18:06:32.276Z,91.59
2022-11-15T18:11:41.481Z,91.78
2022-11-15T18:16:49.214Z,91.59
2022-11-15T18:22:01.137Z,91.44
2022-11-15T18:27:12.846Z,91.53
2022-11-15T18:32:20.252Z,91.65
2022-11-15T18:37:27.951Z,91.40
2022-11-15T18:42:35.557Z,91.16
2022-11-15T18:47:43.101Z,91.30
2022-11-15T18:52:48.851Z,91.56
2022-11-15T18:57:56.132Z,91.74
2022-11-15T19:03:03.940Z,91.57
2022-11-15T19:08:12.022Z,91.85
2022-11-15T19:13:20.108Z,92.22
2022-11-15T19:18:27.701Z,92.34
2022-11-15T19:23:38.972Z,92.26
2022-11-15T19:28:46.676Z,92.50
2022-11-15T19:33:55.156Z,92.24
2022-11-15T19:39:08.735Z,92.19
2022-11-15T19:44:16.560Z,92.22
2022-11-15T19:49:24.081Z,92.45
2022-11-15T19:54:31.270Z,92.50
2022-11-15T19:59:36.769Z,92.19
2022-11-15T20:04:43.878Z,92.37
2022-11-15T20:09:51.159Z,92.71
2022-11-15T20:14:58.783Z,92.83
2022-11-15T20:20:07.224Z,92.92
2022-11-15T20:25:16.365Z,93.14
2022-11-15T20:30:23.667Z,93.48
2022-11-15T20:35:31.998Z,93.60
2022-11-15T20:40:39.902Z,93.57
2022-11-15T20:45:48.847Z,93.55
2022-11-15T20:51:07.489Z,93.77
2022-11-15T20:56:18.183Z,94.29
2022-11-15T21:01:26.550Z,94.79
2022-11-15T21:06:34.088Z,95.13
2022-11-15T21:12:00.113Z,95.08
2022-11-15T21:17:07.368Z,95.16
2022-11-15T21:22:16.633Z,94.94
2022-11-15T21:27:23.849Z,95.29
2022-11-15T21:32:31.313Z,95.88
2022-11-15T21:37:39.210Z,96.21
2022-11-15T21:42:46.745Z,96.52
2022-11-15T21:47:54.571Z,96.35
2022-11-15T21:53:01.918Z,96.73
2022-11-15T21:58:09.435Z,96.51
2022-11-15T22:03:16.687Z,96.19
2022-11-15T22:08:22.160Z,96.31
2022-11-15T22:13:29.571Z,96.02
2022-11-15T22:18:36.947Z,95.61
2022-11-15T22:23:46.308Z,95.33
2022-11-15T22:28:53.850Z,95.03
2022-11-15T22:34:00.918Z,95.05
2022-11-15T22:39:08.231Z,95.25
2022-11-15T22:44:15.460Z,94.89
2022-11-15T22:49:22.651Z,95.44
2022-11-15T23:00:12.182Z,95.99
2022-11-15T23:05:19.525Z,95.94
2022-11-15T23:10:44.840Z,96.10
2022-11-15T23:16:11.802Z,96.61
2022-11-15T23:21:42.974Z,96.56
2022-11-15T23:26:52.126Z,96.76
2022-11-15T23:32:17.855Z,97.21
2022-11-15T23:37:25.163Z,97.40
2022-11-15T23:42:32.392Z,97.94
2022-11-15T23:47:39.455Z,97.82
2022-11-15T23:52:45.443Z,98.52
2022-11-15T23:57:52.738Z,99.22
